createdAt,value
2018-06-23T00:00:30.099Z,8.70
2018-06-23T00:02:58.304Z,6.20
2018-06-23T00:05:26.536Z,5.47
2018-06-23T00:07:54.843Z,5.60
2018-06-23T00:10:23.040Z,7.30
2018-06-23T00:12:51.217Z,5.70
2018-06-23T00:15:19.497Z,7.47
2018-06-23T00:17:47.688Z,9.00
2018-06-23T00:20:15.887Z,7.03
2018-06-23T00:22:44.110Z,7.40
2018-06-23T00:25:16.510Z,5.33
2018-06-23T00:27:44.714Z,12.80
2018-06-23T00:30:12.941Z,5.90
2018-06-23T00:32:41.153Z,11.80
2018-06-23T00:35:09.391Z,4.80
2018-06-23T00:37:37.636Z,3.43
2018-06-23T00:40:05.873Z,8.27
2018-06-23T00:42:34.115Z,9.90
2018-06-23T00:45:02.337Z,14.10
2018-06-23T00:47:30.523Z,6.07
2018-06-23T00:49:58.721Z,12.77
2018-06-23T00:52:26.944Z,6.80
2018-06-23T00:54:55.332Z,10.27
2018-06-23T00:57:23.514Z,11.13
2018-06-23T00:59:51.732Z,13.00
2018-06-23T01:02:19.972Z,6.50
2018-06-23T01:04:48.213Z,7.10
2018-06-23T01:07:16.436Z,5.00
2018-06-23T01:09:44.728Z,9.23
2018-06-23T01:12:12.943Z,8.67
2018-06-23T01:14:41.128Z,11.43
2018-06-23T01:17:10.528Z,9.57
2018-06-23T01:19:38.997Z,7.83
2018-06-23T01:22:07.235Z,12.73
2018-06-23T01:24:35.460Z,10.33
2018-06-23T01:27:03.724Z,6.67
2018-06-23T01:29:32.093Z,13.10
2018-06-23T01:32:00.287Z,9.93
2018-06-23T01:34:28.480Z,13.50
2018-06-23T01:36:57.009Z,7.63
2018-06-23T01:39:25.311Z,13.70
2018-06-23T01:41:53.576Z,10.93
2018-06-23T01:44:21.779Z,6.83
2018-06-23T01:46:50.024Z,7.83
2018-06-23T01:49:18.235Z,19.23
2018-06-23T01:51:46.372Z,5.73
2018-06-23T01:54:14.653Z,11.83
2018-06-23T01:56:42.899Z,12.23
2018-06-23T01:59:11.160Z,5.20
2018-06-23T02:01:39.433Z,15.90
2018-06-23T02:04:07.661Z,12.90
2018-06-23T02:06:35.842Z,16.53
2018-06-23T02:09:06.197Z,9.07
2018-06-23T02:11:34.409Z,15.03
2018-06-23T02:14:07.981Z,15.00
2018-06-23T02:17:40.024Z,16.33
2018-06-23T02:20:13.443Z,7.07
2018-06-23T02:22:47.239Z,15.80
2018-06-23T02:25:20.921Z,10.33
2018-06-23T02:27:54.524Z,18.63
2018-06-23T02:31:29.078Z,16.93
2018-06-23T02:34:02.576Z,10.77
2018-06-23T02:36:30.939Z,12.63
2018-06-23T02:38:59.092Z,13.93
2018-06-23T02:41:30.670Z,22.93
2018-06-23T02:44:00.761Z,16.17
2018-06-23T02:46:29.052Z,20.93
2018-06-23T02:48:57.279Z,16.83
2018-06-23T02:51:25.720Z,16.40
2018-06-23T02:53:53.954Z,14.27
2018-06-23T02:56:22.799Z,9.83
2018-06-23T02:58:51.103Z,12.43
2018-06-23T03:01:19.396Z,21.60
2018-06-23T03:03:47.659Z,21.33
2018-06-23T03:06:15.812Z,20.87
2018-06-23T03:08:44.028Z,13.90
2018-06-23T03:11:12.185Z,14.63
2018-06-23T03:13:40.662Z,14.80
2018-06-23T03:16:08.871Z,19.10
2018-06-23T03:18:37.433Z,11.37
2018-06-23T03:21:05.723Z,21.03
2018-06-23T03:23:33.891Z,12.03
2018-06-23T03:26:02.152Z,23.43
2018-06-23T03:28:30.402Z,26.50
2018-06-23T03:30:58.624Z,9.27
2018-06-23T03:33:26.845Z,11.40
2018-06-23T03:35:55.044Z,16.13
2018-06-23T03:38:23.265Z,15.63
2018-06-23T03:40:51.506Z,15.13
2018-06-23T03:43:19.799Z,25.03
2018-06-23T03:45:49.039Z,16.53
2018-06-23T03:48:17.624Z,23.30
2018-06-23T03:50:45.863Z,16.13
2018-06-23T03:53:14.223Z,25.63
2018-06-23T03:55:42.502Z,22.27
2018-06-23T03:58:10.749Z,22.43
2018-06-23T04:00:43.121Z,16.00
2018-06-23T04:03:11.337Z,15.00
2018-06-23T04:05:44.659Z,12.20
2018-06-23T04:08:12.906Z,15.47
2018-06-23T04:10:41.175Z,24.40
2018-06-23T04:13:09.409Z,10.00
2018-06-23T04:15:37.865Z,18.70
2018-06-23T04:18:06.240Z,16.70
2018-06-23T04:20:34.460Z,23.53
2018-06-23T04:23:02.770Z,16.23
2018-06-23T04:25:30.954Z,17.83
2018-06-23T04:27:59.191Z,16.10
2018-06-23T04:30:27.394Z,28.33
2018-06-23T04:32:55.577Z,29.97
2018-06-23T04:35:23.837Z,16.37
2018-06-23T04:37:52.117Z,11.23
2018-06-23T04:40:20.312Z,15.60
2018-06-23T04:42:48.846Z,17.93
2018-06-23T04:45:17.285Z,24.83
2018-06-23T04:47:45.782Z,18.20
2018-06-23T04:50:14.036Z,35.33
2018-06-23T04:52:42.270Z,28.00
2018-06-23T04:55:10.479Z,20.20
2018-06-23T04:57:38.656Z,18.40
2018-06-23T05:00:07.219Z,33.03
2018-06-23T05:02:35.561Z,18.73
2018-06-23T05:05:03.847Z,17.03
2018-06-23T05:07:32.063Z,14.73
2018-06-23T05:10:00.292Z,13.03
2018-06-23T05:12:28.619Z,17.73
2018-06-23T05:14:56.799Z,20.10
2018-06-23T05:17:25.120Z,19.50
2018-06-23T05:19:54.216Z,19.83
2018-06-23T05:22:22.417Z,26.80
2018-06-23T05:24:57.090Z,18.90
2018-06-23T05:27:25.276Z,22.57
2018-06-23T05:29:53.474Z,17.10
2018-06-23T05:32:21.710Z,20.33
2018-06-23T05:34:49.935Z,20.37
2018-06-23T05:37:18.148Z,11.53
2018-06-23T05:39:46.354Z,18.70
2018-06-23T05:42:14.613Z,20.80
2018-06-23T05:44:42.831Z,12.40
2018-06-23T05:47:11.057Z,7.03
2018-06-23T05:49:39.293Z,21.07
2018-06-23T05:52:07.565Z,19.33
2018-06-23T05:54:35.800Z,14.93
2018-06-23T05:57:04.059Z,13.20
2018-06-23T05:59:32.293Z,26.97
2018-06-23T06:02:00.501Z,19.03
2018-06-23T06:04:28.704Z,15.27
2018-06-23T06:06:57.050Z,17.13
2018-06-23T06:09:25.433Z,14.07
2018-06-23T06:11:53.685Z,18.23
2018-06-23T06:14:22.200Z,27.47
2018-06-23T06:17:54.725Z,24.40
2018-06-23T06:20:23.005Z,16.73
2018-06-23T06:22:51.267Z,15.53
2018-06-23T06:25:20.729Z,22.37
2018-06-23T06:27:49.054Z,9.83
2018-06-23T06:30:17.254Z,13.67
2018-06-23T06:32:45.516Z,15.50
2018-06-23T06:35:13.745Z,11.73
2018-06-23T06:37:41.968Z,13.47
2018-06-23T06:40:10.143Z,14.60
2018-06-23T06:42:38.360Z,17.03
2018-06-23T06:45:07.001Z,14.83
2018-06-23T06:47:35.251Z,13.37
2018-06-23T06:50:03.545Z,17.63
2018-06-23T06:52:31.762Z,15.17
2018-06-23T06:54:59.948Z,26.30
2018-06-23T06:57:28.112Z,19.63
2018-06-23T06:59:56.346Z,20.33
2018-06-23T07:02:24.566Z,22.87
2018-06-23T07:04:52.824Z,13.10
2018-06-23T07:07:21.027Z,14.50
2018-06-23T07:09:49.218Z,13.07
2018-06-23T07:12:17.491Z,6.80
2018-06-23T07:14:45.758Z,16.63
2018-06-23T07:17:13.977Z,16.97
2018-06-23T07:19:42.213Z,24.43
2018-06-23T07:22:10.436Z,10.03
2018-06-23T07:24:38.972Z,16.13
2018-06-23T07:27:07.461Z,11.53
2018-06-23T07:29:35.709Z,14.37
2018-06-23T07:32:04.032Z,11.60
2018-06-23T07:34:32.294Z,11.70
2018-06-23T07:37:00.477Z,8.13
2018-06-23T07:39:28.720Z,9.33
2018-06-23T07:41:56.912Z,9.63
2018-06-23T07:44:25.197Z,11.93
2018-06-23T07:46:53.461Z,6.77
2018-06-23T07:49:22.710Z,4.90
2018-06-23T07:51:50.979Z,9.43
2018-06-23T07:54:19.116Z,8.13
2018-06-23T07:56:47.296Z,10.70
2018-06-23T07:59:15.605Z,10.33
2018-06-23T08:01:44.045Z,11.77
2018-06-23T08:04:12.017Z,12.20
2018-06-23T08:06:40.228Z,9.20
2018-06-23T08:09:09.445Z,10.47
2018-06-23T08:11:37.818Z,10.70
2018-06-23T08:14:06.030Z,7.70
2018-06-23T08:16:34.474Z,13.30
2018-06-23T08:19:02.665Z,9.60
2018-06-23T08:21:30.922Z,7.50
2018-06-23T08:23:59.193Z,9.00
2018-06-23T08:26:27.495Z,6.77
2018-06-23T08:28:55.629Z,9.87
2018-06-23T08:31:23.868Z,7.03
2018-06-23T08:33:52.087Z,6.13
2018-06-23T08:36:20.322Z,6.53
2018-06-23T08:38:48.677Z,24.33
2018-06-23T08:41:16.862Z,7.80
2018-06-23T08:43:45.133Z,5.63
2018-06-23T08:46:13.372Z,8.57
2018-06-23T08:48:41.585Z,7.33
2018-06-23T08:51:09.819Z,4.60
2018-06-23T08:53:38.026Z,4.47
2018-06-23T08:56:06.357Z,2.70
2018-06-23T08:58:34.652Z,3.13
2018-06-23T09:01:02.849Z,6.17
2018-06-23T09:03:31.159Z,7.30
2018-06-23T09:05:59.432Z,3.20
2018-06-23T09:08:27.727Z,2.83
2018-06-23T09:10:55.984Z,6.93
2018-06-23T09:13:24.211Z,5.00
2018-06-23T09:15:52.486Z,5.50
2018-06-23T09:18:20.778Z,21.57
2018-06-23T09:20:49.107Z,7.70
2018-06-23T09:23:17.418Z,4.27
2018-06-23T09:25:45.791Z,10.90
2018-06-23T09:28:14.075Z,5.53
2018-06-23T09:30:42.293Z,7.50
2018-06-23T09:33:10.617Z,4.10
2018-06-23T09:35:38.856Z,5.97
2018-06-23T09:38:07.057Z,18.30
2018-06-23T09:40:35.214Z,12.17
2018-06-23T09:43:03.522Z,11.50
2018-06-23T09:45:31.820Z,3.40
2018-06-23T09:48:00.075Z,7.27
2018-06-23T09:50:28.292Z,7.33
2018-06-23T09:52:56.473Z,13.40
2018-06-23T09:55:24.736Z,10.80
2018-06-23T09:57:53.002Z,8.77
2018-06-23T10:00:26.704Z,5.40
2018-06-23T10:02:54.938Z,5.97
2018-06-23T10:05:23.130Z,14.67
2018-06-23T10:07:51.385Z,15.70
2018-06-23T10:10:19.589Z,7.20
2018-06-23T10:12:48.153Z,15.80
2018-06-23T10:15:16.377Z,6.40
2018-06-23T10:17:44.686Z,8.20
2018-06-23T10:20:12.922Z,12.60
2018-06-23T10:22:41.134Z,7.77
2018-06-23T10:25:09.558Z,7.03
2018-06-23T10:27:37.830Z,25.87
2018-06-23T10:30:06.536Z,12.97
2018-06-23T10:32:35.035Z,12.83
2018-06-23T10:35:03.277Z,5.60
2018-06-23T10:37:31.529Z,5.00
2018-06-23T10:39:59.836Z,5.80
2018-06-23T10:42:28.044Z,6.80
2018-06-23T10:44:56.333Z,2.40
2018-06-23T10:47:24.625Z,4.33
2018-06-23T10:49:52.969Z,6.20
2018-06-23T10:52:21.276Z,8.23
2018-06-23T10:54:49.541Z,6.27
2018-06-23T10:57:18.823Z,3.97
2018-06-23T10:59:47.854Z,7.80
2018-06-23T11:02:17.491Z,8.03
2018-06-23T11:04:46.395Z,9.23
2018-06-23T11:07:16.491Z,5.33
2018-06-23T11:09:45.295Z,3.40
2018-06-23T11:12:13.946Z,6.70
2018-06-23T11:14:43.109Z,3.60
2018-06-23T11:17:11.975Z,11.53
2018-06-23T11:19:40.893Z,2.97
2018-06-23T11:22:10.108Z,6.33
2018-06-23T11:24:39.055Z,15.30
2018-06-23T11:27:07.979Z,6.20
2018-06-23T11:29:37.304Z,5.90
2018-06-23T11:32:06.614Z,8.47
2018-06-23T11:34:35.730Z,10.73
2018-06-23T11:37:05.349Z,11.53
2018-06-23T11:39:35.104Z,16.10
2018-06-23T11:42:04.229Z,4.83
2018-06-23T11:44:33.621Z,3.27
2018-06-23T11:47:03.004Z,4.83
2018-06-23T11:49:31.419Z,6.67
2018-06-23T11:52:00.160Z,4.63
2018-06-23T11:54:28.764Z,14.20
2018-06-23T11:56:58.174Z,4.93
2018-06-23T11:59:27.277Z,5.70
2018-06-23T12:01:55.650Z,8.63
2018-06-23T12:04:27.180Z,8.03
2018-06-23T12:06:56.856Z,2.93
2018-06-23T12:09:25.875Z,2.50
2018-06-23T12:11:55.210Z,6.00
2018-06-23T12:14:24.076Z,6.10
2018-06-23T12:16:52.600Z,1.90
2018-06-23T12:19:22.366Z,3.90
2018-06-23T12:21:52.224Z,5.37
2018-06-23T12:24:20.588Z,3.63
2018-06-23T12:26:50.284Z,5.93
2018-06-23T12:29:18.505Z,7.90
2018-06-23T12:31:46.763Z,3.53
2018-06-23T12:34:15.615Z,4.63
2018-06-23T12:36:44.540Z,3.50
2018-06-23T12:39:12.822Z,3.33
2018-06-23T12:41:41.911Z,2.73
2018-06-23T12:44:10.586Z,5.50
2018-06-23T12:46:39.366Z,5.57
2018-06-23T12:49:07.551Z,2.90
2018-06-23T12:51:35.821Z,6.50
2018-06-23T12:54:04.052Z,6.00
2018-06-23T12:56:32.347Z,4.50
2018-06-23T12:59:00.558Z,3.17
2018-06-23T13:01:28.744Z,2.50
2018-06-23T13:03:57.272Z,4.60
2018-06-23T13:06:25.784Z,7.53
2018-06-23T13:08:54.357Z,3.70
2018-06-23T13:11:23.288Z,4.13
2018-06-23T13:13:51.834Z,3.37
2018-06-23T13:16:20.859Z,2.83
2018-06-23T13:18:49.415Z,5.57
2018-06-23T13:21:17.985Z,4.90
2018-06-23T13:23:46.435Z,6.10
2018-06-23T13:26:14.872Z,2.83
2018-06-23T13:28:43.472Z,2.40
2018-06-23T13:31:11.911Z,4.70
2018-06-23T13:33:40.361Z,10.97
2018-06-23T13:36:08.914Z,6.10
2018-06-23T13:38:37.201Z,4.30
2018-06-23T13:41:06.431Z,4.90
2018-06-23T13:43:35.463Z,5.97
2018-06-23T13:46:03.758Z,6.60
2018-06-23T13:48:32.010Z,6.90
2018-06-23T13:51:00.910Z,6.57
2018-06-23T13:53:29.639Z,4.40
2018-06-23T13:55:58.077Z,5.50
2018-06-23T13:58:26.757Z,8.80
2018-06-23T14:00:55.579Z,6.93
2018-06-23T14:03:24.876Z,5.50
2018-06-23T14:05:53.160Z,6.80
2018-06-23T14:08:22.107Z,4.10
2018-06-23T14:10:50.705Z,9.63
2018-06-23T14:13:19.495Z,5.33
2018-06-23T14:15:48.335Z,9.87
2018-06-23T14:18:16.796Z,8.83
2018-06-23T14:20:45.450Z,3.23
2018-06-23T14:23:13.994Z,10.13
2018-06-23T14:25:43.493Z,3.43
2018-06-23T14:28:12.208Z,4.50
2018-06-23T14:30:41.194Z,10.30
2018-06-23T14:33:09.748Z,8.20
2018-06-23T14:35:38.115Z,6.07
2018-06-23T14:38:06.512Z,3.50
2018-06-23T14:40:34.728Z,2.70
2018-06-23T14:43:03.092Z,5.13
2018-06-23T14:45:31.271Z,5.67
2018-06-23T14:47:59.523Z,6.40
2018-06-23T14:50:27.804Z,4.37
2018-06-23T14:52:56.125Z,5.00
2018-06-23T14:55:24.288Z,4.90
2018-06-23T14:57:52.538Z,5.47
2018-06-23T15:00:20.768Z,9.17
2018-06-23T15:02:49.034Z,7.00
2018-06-23T15:05:17.235Z,5.53
2018-06-23T15:07:45.494Z,5.77
2018-06-23T15:10:25.304Z,7.40
2018-06-23T15:13:05.012Z,8.67
2018-06-23T15:15:33.226Z,9.10
2018-06-23T15:18:01.395Z,6.20
2018-06-23T15:20:29.653Z,10.47
2018-06-23T15:22:57.870Z,9.83
2018-06-23T15:25:26.094Z,7.13
2018-06-23T15:27:54.346Z,7.87
2018-06-23T15:30:22.601Z,10.23
2018-06-23T15:32:50.825Z,9.47
2018-06-23T15:35:19.103Z,6.63
2018-06-23T15:37:47.434Z,11.03
2018-06-23T15:40:15.644Z,16.03
2018-06-23T15:42:43.806Z,7.53
2018-06-23T15:45:12.028Z,5.00
2018-06-23T15:47:40.243Z,7.23
2018-06-23T15:50:08.440Z,5.77
2018-06-23T15:52:36.657Z,9.23
2018-06-23T15:55:04.953Z,6.40
2018-06-23T15:57:33.176Z,9.47
2018-06-23T16:00:01.417Z,8.23
2018-06-23T16:02:29.682Z,14.40
2018-06-23T16:04:57.846Z,9.20
2018-06-23T16:07:26.074Z,7.80
2018-06-23T16:09:54.275Z,13.27
2018-06-23T16:12:22.514Z,9.00
2018-06-23T16:14:50.777Z,14.03
2018-06-23T16:17:19.047Z,9.30
2018-06-23T16:19:47.392Z,7.63
2018-06-23T16:22:15.576Z,15.80
2018-06-23T16:24:43.933Z,14.13
2018-06-23T16:27:12.156Z,15.10
2018-06-23T16:29:41.013Z,12.00
2018-06-23T16:32:09.801Z,10.93
2018-06-23T16:34:38.769Z,12.93
2018-06-23T16:37:07.453Z,10.07
2018-06-23T16:39:36.358Z,9.20
2018-06-23T16:42:05.437Z,15.30
2018-06-23T16:44:34.460Z,5.03
2018-06-23T16:47:02.759Z,14.93
2018-06-23T16:49:31.106Z,4.83
2018-06-23T16:51:59.617Z,6.17
2018-06-23T16:54:27.813Z,9.93
2018-06-23T16:56:56.919Z,4.47
2018-06-23T16:59:25.875Z,4.37
2018-06-23T17:01:54.638Z,12.07
2018-06-23T17:04:22.917Z,12.73
2018-06-23T17:06:51.910Z,10.87
2018-06-23T17:09:20.701Z,7.73
2018-06-23T17:11:49.003Z,5.13
2018-06-23T17:14:18.193Z,7.40
2018-06-23T17:16:47.192Z,4.83
2018-06-23T17:19:15.978Z,4.80
2018-06-23T17:21:44.945Z,8.00
2018-06-23T17:24:13.785Z,7.10
2018-06-23T17:26:42.759Z,5.60
2018-06-23T17:29:11.752Z,5.20
2018-06-23T17:31:40.848Z,6.00
2018-06-23T17:34:09.880Z,7.40
2018-06-23T17:36:38.798Z,11.87
2018-06-23T17:39:09.479Z,5.87
2018-06-23T17:41:42.650Z,3.80
2018-06-23T17:44:11.423Z,5.80
2018-06-23T17:46:40.182Z,12.80
2018-06-23T17:49:09.183Z,3.70
2018-06-23T17:51:37.535Z,4.40
2018-06-23T17:54:06.763Z,4.67
2018-06-23T17:56:35.794Z,5.97
2018-06-23T17:59:04.996Z,3.63
2018-06-23T18:01:33.959Z,10.17
2018-06-23T18:04:03.745Z,6.17
2018-06-23T18:06:32.793Z,6.40
2018-06-23T18:09:01.614Z,4.77
2018-06-23T18:11:30.368Z,5.50
2018-06-23T18:13:59.286Z,3.10
2018-06-23T18:16:28.020Z,5.03
2018-06-23T18:18:56.736Z,6.23
2018-06-23T18:21:25.570Z,3.80
2018-06-23T18:23:54.521Z,4.07
2018-06-23T18:26:23.264Z,5.97
2018-06-23T18:28:52.456Z,6.07
2018-06-23T18:31:21.285Z,7.87
2018-06-23T18:33:50.085Z,8.93
2018-06-23T18:36:18.964Z,2.73
2018-06-23T18:38:47.536Z,8.57
2018-06-23T18:41:16.588Z,4.27
2018-06-23T18:43:45.426Z,7.63
2018-06-23T18:46:14.378Z,3.70
2018-06-23T18:48:43.306Z,5.90
2018-06-23T18:51:11.935Z,6.57
2018-06-23T18:53:40.772Z,5.30
2018-06-23T18:56:09.805Z,5.90
2018-06-23T18:58:38.595Z,8.20
2018-06-23T19:01:07.806Z,6.53
2018-06-23T19:03:36.505Z,4.63
2018-06-23T19:06:04.776Z,6.87
2018-06-23T19:08:32.988Z,4.63
2018-06-23T19:11:01.208Z,8.50
2018-06-23T19:13:29.546Z,6.20
2018-06-23T19:15:57.783Z,3.33
2018-06-23T19:18:26.101Z,3.67
2018-06-23T19:20:55.167Z,4.03
2018-06-23T19:23:24.213Z,4.60
2018-06-23T19:25:53.121Z,2.93
2018-06-23T19:28:28.434Z,2.60
2018-06-23T19:30:57.105Z,3.07
2018-06-23T19:33:26.285Z,3.70
2018-06-23T19:35:55.222Z,2.87
2018-06-23T19:38:23.500Z,4.77
2018-06-23T19:40:51.961Z,2.67
2018-06-23T19:43:20.452Z,4.17
2018-06-23T19:45:48.839Z,10.50
2018-06-23T19:48:17.104Z,3.97
2018-06-23T19:50:45.427Z,3.70
2018-06-23T19:53:13.708Z,3.50
2018-06-23T19:55:41.888Z,6.30
2018-06-23T19:58:10.149Z,15.07
2018-06-23T20:00:38.327Z,24.77
2018-06-23T20:03:06.489Z,11.33
2018-06-23T20:05:34.879Z,5.70
2018-06-23T20:08:03.322Z,6.93
2018-06-23T20:10:31.566Z,3.67
2018-06-23T20:13:00.120Z,5.23
2018-06-23T20:15:28.345Z,3.87
2018-06-23T20:17:56.592Z,5.50
2018-06-23T20:20:24.741Z,4.00
2018-06-23T20:22:53.039Z,15.00
2018-06-23T20:25:21.278Z,4.83
2018-06-23T20:27:49.503Z,7.97
2018-06-23T20:30:17.944Z,7.20
2018-06-23T20:32:46.187Z,4.67
2018-06-23T20:35:14.440Z,4.70
2018-06-23T20:37:42.916Z,5.90
2018-06-23T20:40:11.151Z,7.83
2018-06-23T20:42:39.571Z,5.50
2018-06-23T20:45:08.088Z,6.17
2018-06-23T20:47:36.300Z,6.73
2018-06-23T20:50:04.613Z,7.33
2018-06-23T20:52:33.074Z,7.43
2018-06-23T20:55:01.230Z,4.10
2018-06-23T20:57:29.436Z,5.00
2018-06-23T20:59:57.626Z,8.87
2018-06-23T21:02:25.832Z,9.30
2018-06-23T21:04:54.093Z,11.13
2018-06-23T21:07:22.390Z,12.30
2018-06-23T21:09:50.667Z,7.30
2018-06-23T21:12:18.892Z,4.80
2018-06-23T21:14:47.107Z,10.17
2018-06-23T21:17:15.341Z,14.80
2018-06-23T21:19:43.619Z,7.70
2018-06-23T21:22:11.894Z,10.00
2018-06-23T21:24:40.468Z,7.97
2018-06-23T21:27:09.300Z,8.90
2018-06-23T21:29:37.564Z,8.83
2018-06-23T21:32:06.226Z,17.33
2018-06-23T21:34:34.421Z,11.10
2018-06-23T21:37:02.686Z,10.13
2018-06-23T21:39:31.039Z,8.20
2018-06-23T21:41:59.510Z,13.03
2018-06-23T21:44:27.784Z,10.23
2018-06-23T21:46:56.105Z,9.03
2018-06-23T21:49:24.430Z,17.33
2018-06-23T21:51:52.615Z,28.97
2018-06-23T21:54:20.860Z,9.73
2018-06-23T21:56:49.147Z,13.07
2018-06-23T21:59:17.408Z,12.30
2018-06-23T22:01:45.843Z,12.33
2018-06-23T22:04:14.085Z,21.47
2018-06-23T22:06:42.395Z,24.43
2018-06-23T22:09:11.511Z,14.87
2018-06-23T22:11:39.710Z,14.70
2018-06-23T22:14:07.897Z,12.90
2018-06-23T22:16:36.250Z,17.70
2018-06-23T22:19:04.438Z,13.00
2018-06-23T22:21:32.654Z,11.70
2018-06-23T22:24:00.873Z,13.13
2018-06-23T22:26:29.103Z,9.60
2018-06-23T22:28:57.376Z,24.10
2018-06-23T22:31:25.629Z,11.00
2018-06-23T22:33:54.137Z,10.57
2018-06-23T22:36:22.530Z,9.60
2018-06-23T22:38:50.811Z,15.57
2018-06-23T22:41:19.045Z,12.47
2018-06-23T22:43:47.296Z,12.47
2018-06-23T22:46:15.502Z,10.80
2018-06-23T22:48:44.145Z,11.57
2018-06-23T22:51:12.307Z,16.47
2018-06-23T22:53:40.556Z,11.33
2018-06-23T22:56:08.801Z,9.40
2018-06-23T22:58:37.052Z,9.27
2018-06-23T23:01:05.291Z,11.73
2018-06-23T23:03:33.591Z,12.60
2018-06-23T23:06:01.851Z,16.10
2018-06-23T23:08:30.103Z,15.33
2018-06-23T23:10:58.657Z,18.57
2018-06-23T23:13:26.888Z,13.07
2018-06-23T23:15:55.107Z,16.00
2018-06-23T23:18:23.340Z,10.93
2018-06-23T23:20:51.499Z,10.40
2018-06-23T23:23:19.721Z,23.97
2018-06-23T23:25:47.997Z,10.37
2018-06-23T23:28:16.530Z,18.10
2018-06-23T23:30:44.763Z,16.00
2018-06-23T23:33:12.944Z,14.20
2018-06-23T23:35:41.510Z,13.70
2018-06-23T23:38:09.789Z,11.70
2018-06-23T23:40:38.028Z,8.57
2018-06-23T23:43:06.241Z,16.90
2018-06-23T23:45:34.495Z,10.87
2018-06-23T23:48:02.811Z,9.60
2018-06-23T23:50:31.061Z,12.87
2018-06-23T23:52:59.328Z,10.83
2018-06-23T23:55:27.548Z,12.03
2018-06-23T23:57:55.952Z,14.67
